sensor_id;sensor_type;location;lat;lon;timestamp;temperature;humidity
1716;DHT22;855;48.824;9.220;2022-07-10T00:01:44;21.00;81.70
1716;DHT22;855;48.824;9.220;2022-07-10T00:04:11;21.00;81.50
1716;DHT22;855;48.824;9.220;2022-07-10T00:06:39;21.00;81.50
1716;DHT22;855;48.824;9.220;2022-07-10T00:09:08;21.00;81.30
1716;DHT22;855;48.824;9.220;2022-07-10T00:11:35;20.90;81.50
1716;DHT22;855;48.824;9.220;2022-07-10T00:14:02;20.90;81.50
1716;DHT22;855;48.824;9.220;2022-07-10T00:16:29;20.90;81.10
1716;DHT22;855;48.824;9.220;2022-07-10T00:19:06;20.90;80.80
1716;DHT22;855;48.824;9.220;2022-07-10T00:21:35;20.90;80.80
1716;DHT22;855;48.824;9.220;2022-07-10T00:24:04;20.90;80.70
1716;DHT22;855;48.824;9.220;2022-07-10T00:26:37;20.80;80.70
1716;DHT22;855;48.824;9.220;2022-07-10T00:29:03;20.70;80.70
1716;DHT22;855;48.824;9.220;2022-07-10T00:31:30;20.70;80.70
1716;DHT22;855;48.824;9.220;2022-07-10T00:33:57;20.70;80.80
1716;DHT22;855;48.824;9.220;2022-07-10T00:36:26;20.50;81.20
1716;DHT22;855;48.824;9.220;2022-07-10T00:38:52;20.60;81.20
1716;DHT22;855;48.824;9.220;2022-07-10T00:41:22;20.60;81.10
1716;DHT22;855;48.824;9.220;2022-07-10T00:43:53;20.50;81.20
1716;DHT22;855;48.824;9.220;2022-07-10T00:46:20;20.50;81.30
1716;DHT22;855;48.824;9.220;2022-07-10T00:48:47;20.60;81.20
1716;DHT22;855;48.824;9.220;2022-07-10T00:51:14;20.60;81.10
1716;DHT22;855;48.824;9.220;2022-07-10T00:53:41;20.60;80.90
1716;DHT22;855;48.824;9.220;2022-07-10T00:56:09;20.60;81.10
1716;DHT22;855;48.824;9.220;2022-07-10T00:58:39;20.60;81.50
1716;DHT22;855;48.824;9.220;2022-07-10T01:01:07;20.60;81.30
1716;DHT22;855;48.824;9.220;2022-07-10T01:03:34;20.70;80.90
1716;DHT22;855;48.824;9.220;2022-07-10T01:06:01;20.70;80.90
1716;DHT22;855;48.824;9.220;2022-07-10T01:08:28;20.70;80.70
1716;DHT22;855;48.824;9.220;2022-07-10T01:10:55;20.60;81.50
1716;DHT22;855;48.824;9.220;2022-07-10T01:13:30;20.60;81.70
1716;DHT22;855;48.824;9.220;2022-07-10T01:15:58;20.50;82.30
1716;DHT22;855;48.824;9.220;2022-07-10T01:18:25;20.50;82.50
1716;DHT22;855;48.824;9.220;2022-07-10T01:20:54;20.50;82.40
1716;DHT22;855;48.824;9.220;2022-07-10T01:23:22;20.50;82.50
1716;DHT22;855;48.824;9.220;2022-07-10T01:25:50;20.30;83.20
1716;DHT22;855;48.824;9.220;2022-07-10T01:28:17;20.20;84.10
1716;DHT22;855;48.824;9.220;2022-07-10T01:30:44;20.20;84.10
1716;DHT22;855;48.824;9.220;2022-07-10T01:33:11;20.20;84.00
1716;DHT22;855;48.824;9.220;2022-07-10T01:35:38;20.20;84.00
1716;DHT22;855;48.824;9.220;2022-07-10T01:38:13;20.20;83.70
1716;DHT22;855;48.824;9.220;2022-07-10T01:40:41;20.20;83.60
1716;DHT22;855;48.824;9.220;2022-07-10T01:43:08;20.20;83.30
1716;DHT22;855;48.824;9.220;2022-07-10T01:45:35;20.20;83.40
1716;DHT22;855;48.824;9.220;2022-07-10T01:48:02;20.10;83.60
1716;DHT22;855;48.824;9.220;2022-07-10T01:50:29;20.10;83.60
1716;DHT22;855;48.824;9.220;2022-07-10T01:52:56;20.00;84.00
1716;DHT22;855;48.824;9.220;2022-07-10T01:55:25;20.00;84.20
1716;DHT22;855;48.824;9.220;2022-07-10T01:57:52;19.90;84.60
1716;DHT22;855;48.824;9.220;2022-07-10T02:00:19;19.70;85.40
1716;DHT22;855;48.824;9.220;2022-07-10T02:03:03;19.60;85.70
1716;DHT22;855;48.824;9.220;2022-07-10T02:06:05;19.40;86.60
1716;DHT22;855;48.824;9.220;2022-07-10T02:08:33;19.20;87.10
1716;DHT22;855;48.824;9.220;2022-07-10T02:11:01;19.00;87.70
1716;DHT22;855;48.824;9.220;2022-07-10T02:13:28;18.80;87.40
1716;DHT22;855;48.824;9.220;2022-07-10T02:15:55;18.80;87.70
1716;DHT22;855;48.824;9.220;2022-07-10T02:18:22;18.70;88.20
1716;DHT22;855;48.824;9.220;2022-07-10T02:20:51;18.60;88.50
1716;DHT22;855;48.824;9.220;2022-07-10T02:23:18;18.50;88.70
1716;DHT22;855;48.824;9.220;2022-07-10T02:25:45;18.30;89.40
1716;DHT22;855;48.824;9.220;2022-07-10T02:28:13;18.20;89.90
1716;DHT22;855;48.824;9.220;2022-07-10T02:30:41;18.10;90.30
1716;DHT22;855;48.824;9.220;2022-07-10T02:33:08;18.00;90.80
1716;DHT22;855;48.824;9.220;2022-07-10T02:35:35;17.90;91.20
1716;DHT22;855;48.824;9.220;2022-07-10T02:38:02;17.90;91.60
1716;DHT22;855;48.824;9.220;2022-07-10T02:40:33;17.80;91.80
1716;DHT22;855;48.824;9.220;2022-07-10T02:43:00;17.80;91.90
1716;DHT22;855;48.824;9.220;2022-07-10T02:45:28;17.80;92.00
1716;DHT22;855;48.824;9.220;2022-07-10T02:47:55;17.80;92.20
1716;DHT22;855;48.824;9.220;2022-07-10T02:50:22;17.70;92.20
1716;DHT22;855;48.824;9.220;2022-07-10T02:52:48;17.70;92.60
1716;DHT22;855;48.824;9.220;2022-07-10T02:55:15;17.60;92.80
1716;DHT22;855;48.824;9.220;2022-07-10T02:57:42;17.60;93.00
1716;DHT22;855;48.824;9.220;2022-07-10T03:00:10;17.60;93.00
1716;DHT22;855;48.824;9.220;2022-07-10T03:02:39;17.60;93.10
1716;DHT22;855;48.824;9.220;2022-07-10T03:05:06;17.60;93.10
1716;DHT22;855;48.824;9.220;2022-07-10T03:07:37;17.60;93.00
1716;DHT22;855;48.824;9.220;2022-07-10T03:10:05;17.60;93.20
1716;DHT22;855;48.824;9.220;2022-07-10T03:12:33;17.60;93.30
1716;DHT22;855;48.824;9.220;2022-07-10T03:15:00;17.50;93.20
1716;DHT22;855;48.824;9.220;2022-07-10T03:17:27;17.50;93.20
1716;DHT22;855;48.824;9.220;2022-07-10T03:19:55;17.50;93.30
1716;DHT22;855;48.824;9.220;2022-07-10T03:22:22;17.50;93.30
1716;DHT22;855;48.824;9.220;2022-07-10T03:24:49;17.50;93.40
1716;DHT22;855;48.824;9.220;2022-07-10T03:27:16;17.40;93.40
1716;DHT22;855;48.824;9.220;2022-07-10T03:29:43;17.40;93.70
1716;DHT22;855;48.824;9.220;2022-07-10T03:32:09;17.40;93.60
1716;DHT22;855;48.824;9.220;2022-07-10T03:34:36;17.40;93.50
1716;DHT22;855;48.824;9.220;2022-07-10T03:37:05;17.40;93.50
1716;DHT22;855;48.824;9.220;2022-07-10T03:39:32;17.40;93.40
1716;DHT22;855;48.824;9.220;2022-07-10T03:41:59;17.40;93.40
1716;DHT22;855;48.824;9.220;2022-07-10T03:44:27;17.40;93.40
1716;DHT22;855;48.824;9.220;2022-07-10T03:47:12;17.40;93.20
1716;DHT22;855;48.824;9.220;2022-07-10T03:49:39;17.40;93.10
1716;DHT22;855;48.824;9.220;2022-07-10T03:52:08;17.30;93.20
1716;DHT22;855;48.824;9.220;2022-07-10T03:54:35;17.30;93.40
1716;DHT22;855;48.824;9.220;2022-07-10T03:57:02;17.30;93.50
1716;DHT22;855;48.824;9.220;2022-07-10T03:59:49;17.30;93.50
1716;DHT22;855;48.824;9.220;2022-07-10T04:02:16;17.50;93.20
1716;DHT22;855;48.824;9.220;2022-07-10T04:04:43;17.60;92.90
1716;DHT22;855;48.824;9.220;2022-07-10T04:07:12;17.50;92.70
1716;DHT22;855;48.824;9.220;2022-07-10T04:09:45;17.40;92.90
1716;DHT22;855;48.824;9.220;2022-07-10T04:12:15;17.40;93.10
1716;DHT22;855;48.824;9.220;2022-07-10T04:14:41;17.30;93.40
1716;DHT22;855;48.824;9.220;2022-07-10T04:17:08;17.30;93.40
1716;DHT22;855;48.824;9.220;2022-07-10T04:19:35;17.30;93.40
1716;DHT22;855;48.824;9.220;2022-07-10T04:22:02;17.30;93.50
1716;DHT22;855;48.824;9.220;2022-07-10T04:24:31;17.20;93.70
1716;DHT22;855;48.824;9.220;2022-07-10T04:26:58;17.20;93.80
1716;DHT22;855;48.824;9.220;2022-07-10T04:29:24;17.20;93.80
1716;DHT22;855;48.824;9.220;2022-07-10T04:31:51;17.30;93.80
1716;DHT22;855;48.824;9.220;2022-07-10T04:34:25;17.30;93.60
1716;DHT22;855;48.824;9.220;2022-07-10T04:37:12;17.30;93.20
1716;DHT22;855;48.824;9.220;2022-07-10T04:39:41;17.40;92.70
1716;DHT22;855;48.824;9.220;2022-07-10T04:42:08;17.30;92.20
1716;DHT22;855;48.824;9.220;2022-07-10T04:44:35;17.40;92.10
1716;DHT22;855;48.824;9.220;2022-07-10T04:47:03;17.30;91.60
1716;DHT22;855;48.824;9.220;2022-07-10T04:49:31;17.30;91.70
1716;DHT22;855;48.824;9.220;2022-07-10T04:51:58;17.40;91.60
1716;DHT22;855;48.824;9.220;2022-07-10T04:54:25;17.40;91.40
1716;DHT22;855;48.824;9.220;2022-07-10T04:56:53;17.50;91.30
1716;DHT22;855;48.824;9.220;2022-07-10T04:59:20;17.60;91.00
1716;DHT22;855;48.824;9.220;2022-07-10T05:01:47;17.70;90.50
1716;DHT22;855;48.824;9.220;2022-07-10T05:04:33;17.80;90.60
1716;DHT22;855;48.824;9.220;2022-07-10T05:06:59;17.90;90.30
1716;DHT22;855;48.824;9.220;2022-07-10T05:09:26;17.90;89.80
1716;DHT22;855;48.824;9.220;2022-07-10T05:11:54;17.90;89.70
1716;DHT22;855;48.824;9.220;2022-07-10T05:14:21;18.00;89.70
1716;DHT22;855;48.824;9.220;2022-07-10T05:16:48;18.20;89.40
1716;DHT22;855;48.824;9.220;2022-07-10T05:19:15;18.40;87.70
1716;DHT22;855;48.824;9.220;2022-07-10T05:21:42;18.60;87.30
1716;DHT22;855;48.824;9.220;2022-07-10T05:24:10;18.60;86.20
1716;DHT22;855;48.824;9.220;2022-07-10T05:26:37;18.70;85.60
1716;DHT22;855;48.824;9.220;2022-07-10T05:29:05;18.60;85.40
1716;DHT22;855;48.824;9.220;2022-07-10T05:31:32;18.50;86.00
1716;DHT22;855;48.824;9.220;2022-07-10T05:33:59;18.40;85.80
1716;DHT22;855;48.824;9.220;2022-07-10T05:36:28;18.60;84.60
1716;DHT22;855;48.824;9.220;2022-07-10T05:38:55;18.80;83.00
1716;DHT22;855;48.824;9.220;2022-07-10T05:41:22;19.20;81.20
1716;DHT22;855;48.824;9.220;2022-07-10T05:43:49;19.30;79.70
1716;DHT22;855;48.824;9.220;2022-07-10T05:46:17;19.70;80.50
1716;DHT22;855;48.824;9.220;2022-07-10T05:48:44;19.90;76.20
1716;DHT22;855;48.824;9.220;2022-07-10T05:51:11;20.00;75.30
1716;DHT22;855;48.824;9.220;2022-07-10T05:53:38;20.20;75.30
1716;DHT22;855;48.824;9.220;2022-07-10T05:56:05;20.10;74.90
1716;DHT22;855;48.824;9.220;2022-07-10T05:58:32;20.00;75.00
1716;DHT22;855;48.824;9.220;2022-07-10T06:00:59;19.80;75.60
1716;DHT22;855;48.824;9.220;2022-07-10T06:03:27;19.70;76.40
1716;DHT22;855;48.824;9.220;2022-07-10T06:05:54;19.50;76.80
1716;DHT22;855;48.824;9.220;2022-07-10T06:08:21;19.40;78.00
1716;DHT22;855;48.824;9.220;2022-07-10T06:10:48;19.30;78.80
1716;DHT22;855;48.824;9.220;2022-07-10T06:13:14;19.30;79.00
1716;DHT22;855;48.824;9.220;2022-07-10T06:15:41;19.30;78.70
1716;DHT22;855;48.824;9.220;2022-07-10T06:18:08;19.40;78.00
1716;DHT22;855;48.824;9.220;2022-07-10T06:20:36;19.20;77.80
1716;DHT22;855;48.824;9.220;2022-07-10T06:23:03;19.00;78.00
1716;DHT22;855;48.824;9.220;2022-07-10T06:25:32;18.70;79.10
1716;DHT22;855;48.824;9.220;2022-07-10T06:27:58;18.60;80.50
1716;DHT22;855;48.824;9.220;2022-07-10T06:30:25;18.50;80.30
1716;DHT22;855;48.824;9.220;2022-07-10T06:32:52;18.30;81.30
1716;DHT22;855;48.824;9.220;2022-07-10T06:35:19;18.30;81.20
1716;DHT22;855;48.824;9.220;2022-07-10T06:37:47;18.50;80.50
1716;DHT22;855;48.824;9.220;2022-07-10T06:40:14;18.60;80.10
1716;DHT22;855;48.824;9.220;2022-07-10T06:42:41;18.80;79.20
1716;DHT22;855;48.824;9.220;2022-07-10T06:45:09;18.60;78.20
1716;DHT22;855;48.824;9.220;2022-07-10T06:47:36;18.50;78.60
1716;DHT22;855;48.824;9.220;2022-07-10T06:50:21;18.80;79.00
1716;DHT22;855;48.824;9.220;2022-07-10T06:52:50;18.90;77.80
1716;DHT22;855;48.824;9.220;2022-07-10T06:55:18;18.90;77.10
1716;DHT22;855;48.824;9.220;2022-07-10T06:57:45;19.00;77.80
1716;DHT22;855;48.824;9.220;2022-07-10T07:00:13;19.10;77.20
1716;DHT22;855;48.824;9.220;2022-07-10T07:02:41;19.10;75.60
1716;DHT22;855;48.824;9.220;2022-07-10T07:05:08;19.10;75.60
1716;DHT22;855;48.824;9.220;2022-07-10T07:07:36;19.10;76.20
1716;DHT22;855;48.824;9.220;2022-07-10T07:10:05;19.00;76.70
1716;DHT22;855;48.824;9.220;2022-07-10T07:12:33;19.00;75.30
1716;DHT22;855;48.824;9.220;2022-07-10T07:15:00;18.80;73.70
1716;DHT22;855;48.824;9.220;2022-07-10T07:17:27;18.80;73.30
1716;DHT22;855;48.824;9.220;2022-07-10T07:20:00;18.70;74.90
1716;DHT22;855;48.824;9.220;2022-07-10T07:22:44;18.70;75.50
1716;DHT22;855;48.824;9.220;2022-07-10T07:25:30;18.60;75.30
1716;DHT22;855;48.824;9.220;2022-07-10T07:27:56;18.60;75.60
1716;DHT22;855;48.824;9.220;2022-07-10T07:30:23;18.40;76.00
1716;DHT22;855;48.824;9.220;2022-07-10T07:32:50;18.30;76.80
1716;DHT22;855;48.824;9.220;2022-07-10T07:35:17;18.30;77.00
1716;DHT22;855;48.824;9.220;2022-07-10T07:37:46;18.10;77.20
1716;DHT22;855;48.824;9.220;2022-07-10T07:40:15;18.10;77.40
1716;DHT22;855;48.824;9.220;2022-07-10T07:42:43;18.00;76.70
1716;DHT22;855;48.824;9.220;2022-07-10T07:45:10;18.00;77.40
1716;DHT22;855;48.824;9.220;2022-07-10T07:47:44;18.00;77.40
1716;DHT22;855;48.824;9.220;2022-07-10T07:50:12;18.00;75.50
1716;DHT22;855;48.824;9.220;2022-07-10T07:52:39;18.10;74.70
1716;DHT22;855;48.824;9.220;2022-07-10T07:55:07;18.20;72.30
1716;DHT22;855;48.824;9.220;2022-07-10T07:57:34;18.30;72.10
1716;DHT22;855;48.824;9.220;2022-07-10T08:00:03;18.40;72.10
1716;DHT22;855;48.824;9.220;2022-07-10T08:02:30;18.30;73.50
1716;DHT22;855;48.824;9.220;2022-07-10T08:04:57;18.50;74.10
1716;DHT22;855;48.824;9.220;2022-07-10T08:07:33;18.60;73.40
1716;DHT22;855;48.824;9.220;2022-07-10T08:10:00;18.70;72.30
1716;DHT22;855;48.824;9.220;2022-07-10T08:12:26;18.80;70.50
1716;DHT22;855;48.824;9.220;2022-07-10T08:14:53;19.10;70.60
1716;DHT22;855;48.824;9.220;2022-07-10T08:17:22;19.20;69.70
1716;DHT22;855;48.824;9.220;2022-07-10T08:19:49;19.40;69.70
1716;DHT22;855;48.824;9.220;2022-07-10T08:22:16;19.50;70.50
1716;DHT22;855;48.824;9.220;2022-07-10T08:24:43;19.70;68.10
1716;DHT22;855;48.824;9.220;2022-07-10T08:27:10;19.60;69.00
1716;DHT22;855;48.824;9.220;2022-07-10T08:29:37;19.70;68.00
1716;DHT22;855;48.824;9.220;2022-07-10T08:32:05;19.70;67.70
1716;DHT22;855;48.824;9.220;2022-07-10T08:34:33;19.70;67.50
1716;DHT22;855;48.824;9.220;2022-07-10T08:37:00;19.70;67.10
1716;DHT22;855;48.824;9.220;2022-07-10T08:39:27;19.80;67.10
1716;DHT22;855;48.824;9.220;2022-07-10T08:41:54;19.90;64.30
1716;DHT22;855;48.824;9.220;2022-07-10T08:44:21;19.90;63.50
1716;DHT22;855;48.824;9.220;2022-07-10T08:46:49;20.10;63.60
1716;DHT22;855;48.824;9.220;2022-07-10T08:49:16;20.10;63.50
1716;DHT22;855;48.824;9.220;2022-07-10T08:51:50;20.20;63.00
1716;DHT22;855;48.824;9.220;2022-07-10T08:54:19;20.10;63.90
1716;DHT22;855;48.824;9.220;2022-07-10T08:56:47;20.10;63.90
1716;DHT22;855;48.824;9.220;2022-07-10T08:59:15;20.10;63.40
1716;DHT22;855;48.824;9.220;2022-07-10T09:01:43;20.00;62.00
1716;DHT22;855;48.824;9.220;2022-07-10T09:04:16;19.90;62.80
1716;DHT22;855;48.824;9.220;2022-07-10T09:06:45;20.00;63.40
1716;DHT22;855;48.824;9.220;2022-07-10T09:09:13;20.00;62.30
1716;DHT22;855;48.824;9.220;2022-07-10T09:11:40;20.20;61.10
1716;DHT22;855;48.824;9.220;2022-07-10T09:14:08;20.50;61.10
1716;DHT22;855;48.824;9.220;2022-07-10T09:16:38;20.70;60.10
1716;DHT22;855;48.824;9.220;2022-07-10T09:19:16;20.80;59.80
1716;DHT22;855;48.824;9.220;2022-07-10T09:21:46;20.50;60.00
1716;DHT22;855;48.824;9.220;2022-07-10T09:24:13;20.30;60.30
1716;DHT22;855;48.824;9.220;2022-07-10T09:26:42;20.40;60.20
1716;DHT22;855;48.824;9.220;2022-07-10T09:29:11;20.70;59.20
1716;DHT22;855;48.824;9.220;2022-07-10T09:31:51;21.00;58.90
1716;DHT22;855;48.824;9.220;2022-07-10T09:34:34;21.00;58.00
1716;DHT22;855;48.824;9.220;2022-07-10T09:37:18;20.80;58.30
1716;DHT22;855;48.824;9.220;2022-07-10T09:39:53;20.80;59.00
1716;DHT22;855;48.824;9.220;2022-07-10T09:42:30;21.00;57.40
1716;DHT22;855;48.824;9.220;2022-07-10T09:45:17;21.00;57.40
1716;DHT22;855;48.824;9.220;2022-07-10T09:47:45;21.10;57.50
1716;DHT22;855;48.824;9.220;2022-07-10T09:50:23;21.20;57.40
1716;DHT22;855;48.824;9.220;2022-07-10T09:52:53;21.10;57.00
1716;DHT22;855;48.824;9.220;2022-07-10T09:55:21;20.90;58.30
1716;DHT22;855;48.824;9.220;2022-07-10T09:57:54;20.70;58.70
1716;DHT22;855;48.824;9.220;2022-07-10T10:00:27;20.80;58.70
1716;DHT22;855;48.824;9.220;2022-07-10T10:02:56;20.80;57.30
1716;DHT22;855;48.824;9.220;2022-07-10T10:05:32;20.70;58.80
1716;DHT22;855;48.824;9.220;2022-07-10T10:08:09;20.60;58.50
1716;DHT22;855;48.824;9.220;2022-07-10T10:10:40;20.60;59.30
1716;DHT22;855;48.824;9.220;2022-07-10T10:13:08;20.60;59.40
1716;DHT22;855;48.824;9.220;2022-07-10T10:15:37;20.60;58.40
1716;DHT22;855;48.824;9.220;2022-07-10T10:18:05;20.80;56.90
1716;DHT22;855;48.824;9.220;2022-07-10T10:20:33;21.00;56.70
1716;DHT22;855;48.824;9.220;2022-07-10T10:23:12;21.00;56.20
1716;DHT22;855;48.824;9.220;2022-07-10T10:25:39;21.00;55.90
1716;DHT22;855;48.824;9.220;2022-07-10T10:28:08;20.70;57.40
1716;DHT22;855;48.824;9.220;2022-07-10T10:30:37;20.50;58.90
1716;DHT22;855;48.824;9.220;2022-07-10T10:36:06;21.10;56.80
1716;DHT22;855;48.824;9.220;2022-07-10T10:39:00;21.20;55.90
1716;DHT22;855;48.824;9.220;2022-07-10T10:41:30;21.20;56.00
1716;DHT22;855;48.824;9.220;2022-07-10T10:44:22;21.10;57.20
1716;DHT22;855;48.824;9.220;2022-07-10T10:46:55;21.20;58.30
1716;DHT22;855;48.824;9.220;2022-07-10T10:49:28;21.10;58.00
1716;DHT22;855;48.824;9.220;2022-07-10T10:52:14;20.90;58.80
1716;DHT22;855;48.824;9.220;2022-07-10T10:55:01;21.10;58.30
1716;DHT22;855;48.824;9.220;2022-07-10T10:57:42;21.30;58.00
1716;DHT22;855;48.824;9.220;2022-07-10T11:00:34;21.50;56.80
1716;DHT22;855;48.824;9.220;2022-07-10T11:03:19;21.40;57.20
1716;DHT22;855;48.824;9.220;2022-07-10T11:05:48;21.40;58.90
1716;DHT22;855;48.824;9.220;2022-07-10T11:08:38;21.40;56.80
1716;DHT22;855;48.824;9.220;2022-07-10T11:11:38;21.40;58.30
1716;DHT22;855;48.824;9.220;2022-07-10T11:14:09;21.50;57.30
1716;DHT22;855;48.824;9.220;2022-07-10T11:16:45;21.40;56.00
1716;DHT22;855;48.824;9.220;2022-07-10T11:19:20;21.30;56.20
1716;DHT22;855;48.824;9.220;2022-07-10T11:21:47;21.40;56.40
1716;DHT22;855;48.824;9.220;2022-07-10T11:24:45;21.60;55.90
1716;DHT22;855;48.824;9.220;2022-07-10T11:27:28;21.40;55.00
1716;DHT22;855;48.824;9.220;2022-07-10T11:29:57;21.30;56.90
1716;DHT22;855;48.824;9.220;2022-07-10T11:32:24;21.40;56.00
1716;DHT22;855;48.824;9.220;2022-07-10T11:34:51;21.30;56.20
1716;DHT22;855;48.824;9.220;2022-07-10T11:37:18;21.50;55.80
1716;DHT22;855;48.824;9.220;2022-07-10T11:39:46;21.40;54.40
1716;DHT22;855;48.824;9.220;2022-07-10T11:42:12;21.40;54.70
1716;DHT22;855;48.824;9.220;2022-07-10T11:44:41;21.50;54.40
1716;DHT22;855;48.824;9.220;2022-07-10T11:47:08;21.60;53.80
1716;DHT22;855;48.824;9.220;2022-07-10T11:49:44;21.50;54.30
1716;DHT22;855;48.824;9.220;2022-07-10T11:52:11;21.80;53.80
1716;DHT22;855;48.824;9.220;2022-07-10T11:54:38;21.90;53.60
1716;DHT22;855;48.824;9.220;2022-07-10T11:57:08;21.90;52.70
1716;DHT22;855;48.824;9.220;2022-07-10T11:59:34;21.50;53.70
1716;DHT22;855;48.824;9.220;2022-07-10T12:02:03;21.60;54.20
1716;DHT22;855;48.824;9.220;2022-07-10T12:04:31;21.80;53.30
1716;DHT22;855;48.824;9.220;2022-07-10T12:06:58;22.00;50.30
1716;DHT22;855;48.824;9.220;2022-07-10T12:09:25;22.10;49.30
1716;DHT22;855;48.824;9.220;2022-07-10T12:11:59;22.20;49.20
1716;DHT22;855;48.824;9.220;2022-07-10T12:14:27;22.20;49.60
1716;DHT22;855;48.824;9.220;2022-07-10T12:16:54;22.30;49.80
1716;DHT22;855;48.824;9.220;2022-07-10T12:19:24;22.00;50.30
1716;DHT22;855;48.824;9.220;2022-07-10T12:21:53;21.90;50.40
1716;DHT22;855;48.824;9.220;2022-07-10T12:24:20;21.90;50.60
1716;DHT22;855;48.824;9.220;2022-07-10T12:26:48;22.00;51.60
1716;DHT22;855;48.824;9.220;2022-07-10T12:29:19;22.30;49.90
1716;DHT22;855;48.824;9.220;2022-07-10T12:31:48;22.50;48.70
1716;DHT22;855;48.824;9.220;2022-07-10T12:34:16;22.10;50.30
1716;DHT22;855;48.824;9.220;2022-07-10T12:36:46;21.90;50.80
1716;DHT22;855;48.824;9.220;2022-07-10T12:39:14;21.90;49.80
1716;DHT22;855;48.824;9.220;2022-07-10T12:41:55;21.50;50.20
1716;DHT22;855;48.824;9.220;2022-07-10T12:44:40;21.40;50.80
1716;DHT22;855;48.824;9.220;2022-07-10T12:47:08;21.50;50.10
1716;DHT22;855;48.824;9.220;2022-07-10T12:49:51;21.70;50.40
1716;DHT22;855;48.824;9.220;2022-07-10T12:52:24;22.10;50.30
1716;DHT22;855;48.824;9.220;2022-07-10T12:55:11;21.90;49.60
1716;DHT22;855;48.824;9.220;2022-07-10T12:57:50;21.60;50.30
1716;DHT22;855;48.824;9.220;2022-07-10T13:00:19;21.60;50.80
1716;DHT22;855;48.824;9.220;2022-07-10T13:02:46;21.80;50.80
1716;DHT22;855;48.824;9.220;2022-07-10T13:05:25;22.20;51.60
1716;DHT22;855;48.824;9.220;2022-07-10T13:08:04;22.20;50.10
1716;DHT22;855;48.824;9.220;2022-07-10T13:10:32;22.10;50.60
1716;DHT22;855;48.824;9.220;2022-07-10T13:12:59;22.10;50.60
1716;DHT22;855;48.824;9.220;2022-07-10T13:15:26;21.90;50.40
1716;DHT22;855;48.824;9.220;2022-07-10T13:17:55;21.90;50.20
1716;DHT22;855;48.824;9.220;2022-07-10T13:20:21;22.10;49.40
1716;DHT22;855;48.824;9.220;2022-07-10T13:22:48;22.40;48.60
1716;DHT22;855;48.824;9.220;2022-07-10T13:25:17;22.50;48.20
1716;DHT22;855;48.824;9.220;2022-07-10T13:27:43;22.70;47.80
1716;DHT22;855;48.824;9.220;2022-07-10T13:30:10;22.60;47.50
1716;DHT22;855;48.824;9.220;2022-07-10T13:32:37;22.30;48.80
1716;DHT22;855;48.824;9.220;2022-07-10T13:35:05;22.10;49.20
1716;DHT22;855;48.824;9.220;2022-07-10T13:37:32;22.00;50.30
1716;DHT22;855;48.824;9.220;2022-07-10T13:40:01;22.10;50.10
1716;DHT22;855;48.824;9.220;2022-07-10T13:42:29;22.10;49.40
1716;DHT22;855;48.824;9.220;2022-07-10T13:44:56;22.30;50.30
1716;DHT22;855;48.824;9.220;2022-07-10T13:47:23;22.20;49.60
1716;DHT22;855;48.824;9.220;2022-07-10T13:49:49;22.30;50.30
1716;DHT22;855;48.824;9.220;2022-07-10T13:52:16;22.40;48.40
1716;DHT22;855;48.824;9.220;2022-07-10T13:54:43;22.50;49.70
1716;DHT22;855;48.824;9.220;2022-07-10T13:57:10;22.70;47.90
1716;DHT22;855;48.824;9.220;2022-07-10T13:59:38;22.50;48.70
1716;DHT22;855;48.824;9.220;2022-07-10T14:02:06;22.20;49.70
1716;DHT22;855;48.824;9.220;2022-07-10T14:04:33;22.10;49.80
1716;DHT22;855;48.824;9.220;2022-07-10T14:07:00;22.00;50.30
1716;DHT22;855;48.824;9.220;2022-07-10T14:09:27;22.20;50.30
1716;DHT22;855;48.824;9.220;2022-07-10T14:11:54;22.00;49.70
1716;DHT22;855;48.824;9.220;2022-07-10T14:14:21;22.00;49.80
1716;DHT22;855;48.824;9.220;2022-07-10T14:16:50;22.10;48.60
1716;DHT22;855;48.824;9.220;2022-07-10T14:19:17;22.30;48.80
1716;DHT22;855;48.824;9.220;2022-07-10T14:21:44;22.30;48.40
1716;DHT22;855;48.824;9.220;2022-07-10T14:24:10;22.30;48.40
1716;DHT22;855;48.824;9.220;2022-07-10T14:26:37;22.10;48.70
1716;DHT22;855;48.824;9.220;2022-07-10T14:29:05;22.30;49.40
1716;DHT22;855;48.824;9.220;2022-07-10T14:31:32;22.40;48.80
1716;DHT22;855;48.824;9.220;2022-07-10T14:34:01;22.40;48.10
1716;DHT22;855;48.824;9.220;2022-07-10T14:36:29;22.40;48.60
1716;DHT22;855;48.824;9.220;2022-07-10T14:38:57;22.40;49.40
1716;DHT22;855;48.824;9.220;2022-07-10T14:41:24;22.70;48.20
1716;DHT22;855;48.824;9.220;2022-07-10T14:43:51;22.90;47.00
1716;DHT22;855;48.824;9.220;2022-07-10T14:46:18;22.90;47.30
1716;DHT22;855;48.824;9.220;2022-07-10T14:48:45;23.00;47.00
1716;DHT22;855;48.824;9.220;2022-07-10T14:51:13;23.30;46.10
1716;DHT22;855;48.824;9.220;2022-07-10T14:53:40;23.20;46.50
1716;DHT22;855;48.824;9.220;2022-07-10T14:56:08;23.00;47.10
1716;DHT22;855;48.824;9.220;2022-07-10T14:58:36;23.00;46.20
1716;DHT22;855;48.824;9.220;2022-07-10T15:01:03;22.90;46.20
1716;DHT22;855;48.824;9.220;2022-07-10T15:03:29;22.40;46.70
1716;DHT22;855;48.824;9.220;2022-07-10T15:05:56;22.30;47.80
1716;DHT22;855;48.824;9.220;2022-07-10T15:08:25;22.30;47.70
1716;DHT22;855;48.824;9.220;2022-07-10T15:10:52;22.20;46.70
1716;DHT22;855;48.824;9.220;2022-07-10T15:13:19;22.30;47.90
1716;DHT22;855;48.824;9.220;2022-07-10T15:15:46;22.40;46.80
1716;DHT22;855;48.824;9.220;2022-07-10T15:18:15;22.40;47.00
1716;DHT22;855;48.824;9.220;2022-07-10T15:20:42;22.40;47.10
1716;DHT22;855;48.824;9.220;2022-07-10T15:23:09;22.70;46.80
1716;DHT22;855;48.824;9.220;2022-07-10T15:25:37;22.80;46.00
1716;DHT22;855;48.824;9.220;2022-07-10T15:28:05;22.90;45.60
1716;DHT22;855;48.824;9.220;2022-07-10T15:30:33;22.80;46.10
1716;DHT22;855;48.824;9.220;2022-07-10T15:33:00;22.80;45.80
1716;DHT22;855;48.824;9.220;2022-07-10T15:35:27;22.70;45.70
1716;DHT22;855;48.824;9.220;2022-07-10T15:37:53;22.60;46.10
1716;DHT22;855;48.824;9.220;2022-07-10T15:40:20;22.50;46.10
1716;DHT22;855;48.824;9.220;2022-07-10T15:42:49;22.60;46.10
1716;DHT22;855;48.824;9.220;2022-07-10T15:45:16;22.50;45.80
1716;DHT22;855;48.824;9.220;2022-07-10T15:47:42;22.50;46.80
1716;DHT22;855;48.824;9.220;2022-07-10T15:50:09;22.50;46.60
1716;DHT22;855;48.824;9.220;2022-07-10T15:52:36;22.40;45.60
1716;DHT22;855;48.824;9.220;2022-07-10T15:55:04;22.50;46.10
1716;DHT22;855;48.824;9.220;2022-07-10T15:57:31;22.60;45.20
1716;DHT22;855;48.824;9.220;2022-07-10T15:59:59;22.50;45.80
1716;DHT22;855;48.824;9.220;2022-07-10T16:02:26;22.50;46.30
1716;DHT22;855;48.824;9.220;2022-07-10T16:04:53;22.40;46.70
1716;DHT22;855;48.824;9.220;2022-07-10T16:07:19;22.30;46.60
1716;DHT22;855;48.824;9.220;2022-07-10T16:09:46;22.30;46.60
1716;DHT22;855;48.824;9.220;2022-07-10T16:12:15;22.30;46.70
1716;DHT22;855;48.824;9.220;2022-07-10T16:14:41;22.40;47.30
1716;DHT22;855;48.824;9.220;2022-07-10T16:17:10;22.40;47.30
1716;DHT22;855;48.824;9.220;2022-07-10T16:19:37;22.50;47.00
1716;DHT22;855;48.824;9.220;2022-07-10T16:22:04;22.60;46.50
1716;DHT22;855;48.824;9.220;2022-07-10T16:24:31;22.80;46.80
1716;DHT22;855;48.824;9.220;2022-07-10T16:26:58;23.00;45.80
1716;DHT22;855;48.824;9.220;2022-07-10T16:29:25;22.90;45.20
1716;DHT22;855;48.824;9.220;2022-07-10T16:31:52;22.80;45.80
1716;DHT22;855;48.824;9.220;2022-07-10T16:34:21;22.60;45.70